Time;durP1;ratioP1;P1;durP2;ratioP2;P2;SDS_P1;SDS_P2;PMS_P1;PMS_P2;Temp;Humidity;BMP_temperature;BMP_pressure;BME280_temperature;BME280_humidity;BME280_pressure;Samples;Min_cycle;Max_cycle;Signal;HPM_P1;HPM_P2
2021/08/15 00:00:50;;;;;;;;;;;;;;;;;;2100920;28;1773;-81
2021/08/15 00:01:51;;;;;;;;;;;;;;;;;;2109325;28;1567;-81
2021/08/15 00:02:53;;;;;;;;;;;;;;;;;;2100718;28;1902;-81
2021/08/15 00:03:55;;;;;;;;;;;;;;;;;;2101474;28;1578;-81
2021/08/15 00:04:57;;;;;;;;;;;;;;;;;;2100805;28;1401;-81
2021/08/15 00:05:58;;;;;;;;;;;;;;;;;;2111600;28;1873;-81
2021/08/15 00:06:59;;;;;;;;;;;;;;;;;;2117457;28;1545;-81
2021/08/15 00:08:01;;;;;;;;;;;;;;;;;;2109409;28;2016;-81
2021/08/15 00:09:02;;;;;;;;;;;;;;;;;;2108527;28;1733;-81
2021/08/15 00:10:05;;;;;;;;;;;;;;;;;;2117732;28;1291;-81
2021/08/15 00:11:06;;;;;;;;;;;;;;;;;;2117660;28;1272;-81
2021/08/15 00:12:08;;;;;;;;;;;;;;;;;;2117540;28;891;-85
2021/08/15 00:13:09;;;;;;;;;;;;;;;;;;2117737;28;1775;-81
2021/08/15 00:14:10;;;;;;;;;;;;;;;;;;2108825;28;1778;-83
2021/08/15 00:15:12;;;;;;;;;;;;;;;;;;2109381;28;1377;-82
2021/08/15 00:16:13;;;;;;;;;;;;;;;;;;2117545;28;1219;-82
2021/08/15 00:17:14;;;;;;;;;;;;;;;;;;2108871;28;1622;-82
2021/08/15 00:18:16;;;;;;;;;;;;;;;;;;2101021;28;1288;-82
2021/08/15 00:19:18;;;;;;;;;;;;;;;;;;2109426;28;823;-82
2021/08/15 00:20:20;;;;;;;;;;;;;;;;;;2109005;28;1929;-82
2021/08/15 00:21:21;;;;;;;;;;;;;;;;;;2109171;28;1230;-82
2021/08/15 00:22:23;;;;;;;;;;;;;;;;;;2100355;28;2101;-82
2021/08/15 00:23:24;;;;;;;;;;;;;;;;;;2100849;28;1504;-82
2021/08/15 00:24:25;;;;;;;;;;;;;;;;;;2100682;28;1783;-82
2021/08/15 00:25:26;;;;;;;;;;;;;;;;;;2101058;28;2011;-82
2021/08/15 00:26:28;;;;;;;;;;;;;;;;;;2100592;28;1234;-82
2021/08/15 00:27:29;;;;;;;;;;;;;;;;;;2092578;28;1495;-82
2021/08/15 00:28:31;;;;;;;;;;;;;;;;;;2083809;28;1592;-82
2021/08/15 00:29:31;;;;;;;;;;;;;;;;;;2100967;28;1417;-82
2021/08/15 00:30:33;;;;;;;;;;;;;;;;;;2100439;28;1791;-82
2021/08/15 00:31:34;;;;;;;;;;;;;;;;;;2100409;28;1622;-82
2021/08/15 00:32:37;;;;;;;;;;;;;;;;;;2102660;28;1706;-82
2021/08/15 00:33:37;;;;;;;;;;;;;;;;;;2109192;28;1275;-82
2021/08/15 00:34:41;;;;;;;;;;;;;;;;;;2109006;28;1632;-82
2021/08/15 00:35:43;;;;;;;;;;;;;;;;;;2108975;28;1685;-82
2021/08/15 00:36:44;;;;;;;;;;;;;;;;;;2117499;28;1216;-82
2021/08/15 00:37:45;;;;;;;;;;;;;;;;;;2105107;28;1608;-82
2021/08/15 00:38:46;;;;;;;;;;;;;;;;;;2092403;28;1515;-81
2021/08/15 00:39:48;;;;;;;;;;;;;;;;;;2100311;28;1705;-82
2021/08/15 00:40:49;;;;;;;;;;;;;;;;;;2108794;28;1389;-82
2021/08/15 00:41:50;;;;;;;;;;;;;;;;;;2108844;28;1603;-82
2021/08/15 00:42:52;;;;;;;;;;;;;;;;;;2100132;28;1980;-80
2021/08/15 00:43:53;;;;;;;;;;;;;;;;;;2100707;28;1505;-82
2021/08/15 00:44:55;;;;;;;;;;;;;;;;;;2100585;28;1620;-82
2021/08/15 00:45:55;;;;;;;;;;;;;;;;;;2100163;28;2152;-82
2021/08/15 00:46:58;;;;;;;;;;;;;;;;;;2100481;28;1559;-82
2021/08/15 00:48:06;;;;;;;;;;;;;;;;;;2106071;28;1900;-82
2021/08/15 00:49:07;;;;;;;;;;;;;;;;;;2101593;28;1528;-82
2021/08/15 00:50:11;;;;;;;;;;;;;;;;;;2099916;28;1638;-82
2021/08/15 00:51:12;;;;;;;;;;;;;;;;;;2108214;28;1206;-82
2021/08/15 00:52:13;;;;;;;;;;;;;;;;;;2108698;28;1564;-82
2021/08/15 00:53:15;;;;;;;;;;;;;;;;;;2108965;28;783;-82
2021/08/15 00:54:16;;;;;;;;;;;;;;;;;;2117015;28;1540;-82
2021/08/15 00:55:18;;;;;;;;;;;;;;;;;;2108555;28;1265;-82
2021/08/15 00:56:20;;;;;;;;;;;;;;;;;;2114875;28;1887;-82
2021/08/15 00:57:24;;;;;;;;;;;;;;;;;;2117335;28;1234;-81
2021/08/15 00:58:25;;;;;;;;;;;;;;;;;;2117463;28;1001;-82
2021/08/15 00:59:27;;;;;;;;;;;;;;;;;;2117040;28;1759;-81
2021/08/15 01:00:28;;;;;;;;;;;;;;;;;;2108937;28;1528;-82
2021/08/15 01:01:30;;;;;;;;;;;;;;;;;;2101455;28;1548;-82
2021/08/15 01:02:32;;;;;;;;;;;;;;;;;;2108846;28;1922;-82
2021/08/15 01:03:33;;;;;;;;;;;;;;;;;;2109059;28;1564;-82
2021/08/15 01:04:36;;;;;;;;;;;;;;;;;;2108581;28;1506;-82
2021/08/15 01:05:39;;;;;;;;;;;;;;;;;;2092364;28;1499;-82
2021/08/15 01:06:40;;;;;;;;;;;;;;;;;;2100547;28;1640;-82
2021/08/15 01:07:42;;;;;;;;;;;;;;;;;;2092101;28;1539;-81
2021/08/15 01:08:43;;;;;;;;;;;;;;;;;;2099849;28;1705;-82
2021/08/15 01:09:45;;;;;;;;;;;;;;;;;;2108830;28;1561;-82
2021/08/15 01:10:46;;;;;;;;;;;;;;;;;;2099758;28;2054;-82
2021/08/15 01:11:47;;;;;;;;;;;;;;;;;;2108760;28;1613;-82
2021/08/15 01:12:49;;;;;;;;;;;;;;;;;;2100260;28;1515;-82
2021/08/15 01:13:51;;;;;;;;;;;;;;;;;;2108912;28;1276;-82
2021/08/15 01:14:52;;;;;;;;;;;;;;;;;;2108195;28;1655;-82
2021/08/15 01:15:53;;;;;;;;;;;;;;;;;;2108804;28;1384;-82
2021/08/15 01:16:54;;;;;;;;;;;;;;;;;;2108086;28;1726;-82
2021/08/15 01:17:57;;;;;;;;;;;;;;;;;;2100050;28;1615;-81
2021/08/15 01:18:57;;;;;;;;;;;;;;;;;;2100033;28;1679;-82
2021/08/15 01:19:59;;;;;;;;;;;;;;;;;;2100059;28;1361;-82
2021/08/15 01:21:03;;;;;;;;;;;;;;;;;;2099380;28;1566;-82
2021/08/15 01:22:04;;;;;;;;;;;;;;;;;;2100575;28;1674;-82
2021/08/15 01:23:05;;;;;;;;;;;;;;;;;;2100032;28;1949;-82
2021/08/15 01:24:07;;;;;;;;;;;;;;;;;;2100116;28;1668;-82
2021/08/15 01:25:09;;;;;;;;;;;;;;;;;;2100540;28;1297;-82
2021/08/15 01:26:11;;;;;;;;;;;;;;;;;;2099481;28;1267;-83
2021/08/15 01:27:13;;;;;;;;;;;;;;;;;;2108856;28;1041;-82
2021/08/15 01:28:17;;;;;;;;;;;;;;;;;;2108079;28;1725;-82
2021/08/15 01:29:19;;;;;;;;;;;;;;;;;;2108960;28;1683;-82
2021/08/15 01:30:22;;;;;;;;;;;;;;;;;;2108540;28;1330;-81
2021/08/15 01:31:24;;;;;;;;;;;;;;;;;;2108788;28;1661;-82
2021/08/15 01:32:25;;;;;;;;;;;;;;;;;;2108588;28;2039;-82
2021/08/15 01:33:28;;;;;;;;;;;;;;;;;;2116823;28;1616;-82
2021/08/15 01:34:30;;;;;;;;;;;;;;;;;;2116928;28;1400;-82
2021/08/15 01:35:31;;;;;;;;;;;;;;;;;;2117499;28;892;-82
2021/08/15 01:36:32;;;;;;;;;;;;;;;;;;2116244;28;1704;-83
2021/08/15 01:37:33;;;;;;;;;;;;;;;;;;2108560;28;1330;-82
2021/08/15 01:38:37;;;;;;;;;;;;;;;;;;2108456;28;1724;-82
2021/08/15 01:39:38;;;;;;;;;;;;;;;;;;2117061;28;870;-82
2021/08/15 01:40:40;;;;;;;;;;;;;;;;;;2116903;28;1482;-82
2021/08/15 01:41:41;;;;;;;;;;;;;;;;;;2100382;28;1691;-82
2021/08/15 01:42:42;;;;;;;;;;;;;;;;;;2099899;28;1984;-82
2021/08/15 01:43:50;;;;;;;;;;;;;;;;;;2102232;28;1524;-83
2021/08/15 01:44:51;;;;;;;;;;;;;;;;;;2105104;28;1498;-83
2021/08/15 01:45:53;;;;;;;;;;;;;;;;;;2111439;28;2233;-81
2021/08/15 01:46:54;;;;;;;;;;;;;;;;;;2111112;28;1343;-83
2021/08/15 01:47:55;;;;;;;;;;;;;;;;;;2111912;28;1386;-81
2021/08/15 01:48:56;;;;;;;;;;;;;;;;;;2110996;28;1564;-82
2021/08/15 01:49:58;;;;;;;;;;;;;;;;;;2119593;28;1660;-82
2021/08/15 01:50:59;;;;;;;;;;;;;;;;;;2110215;28;1744;-82
2021/08/15 01:52:00;;;;;;;;;;;;;;;;;;2108567;28;1652;-82
2021/08/15 01:53:01;;;;;;;;;;;;;;;;;;2107986;28;1664;-82
2021/08/15 01:54:04;;;;;;;;;;;;;;;;;;2108560;28;1824;-82
2021/08/15 01:55:05;;;;;;;;;;;;;;;;;;2116739;28;902;-82
2021/08/15 01:56:07;;;;;;;;;;;;;;;;;;2112739;28;2132;-84
2021/08/15 01:57:08;;;;;;;;;;;;;;;;;;2108553;28;1331;-82
2021/08/15 01:58:11;;;;;;;;;;;;;;;;;;2108241;28;1689;-83
2021/08/15 01:59:14;;;;;;;;;;;;;;;;;;2108498;28;1354;-82
2021/08/15 02:00:15;;;;;;;;;;;;;;;;;;2108394;28;1578;-82
2021/08/15 02:01:17;;;;;;;;;;;;;;;;;;2100247;28;1711;-82
2021/08/15 02:02:18;;;;;;;;;;;;;;;;;;2091535;28;1645;-83
2021/08/15 02:03:20;;;;;;;;;;;;;;;;;;2100344;28;1921;-82
2021/08/15 02:04:21;;;;;;;;;;;;;;;;;;2100108;28;1280;-82
2021/08/15 02:05:23;;;;;;;;;;;;;;;;;;2100016;28;1641;-82
2021/08/15 02:06:26;;;;;;;;;;;;;;;;;;2106112;28;1713;-82
2021/08/15 02:07:26;;;;;;;;;;;;;;;;;;2107940;28;1567;-82
2021/08/15 02:08:28;;;;;;;;;;;;;;;;;;2091790;28;1626;-82
2021/08/15 02:09:29;;;;;;;;;;;;;;;;;;2091799;28;1682;-82
2021/08/15 02:10:31;;;;;;;;;;;;;;;;;;2091577;28;1321;-82
2021/08/15 02:11:32;;;;;;;;;;;;;;;;;;2099990;28;1535;-82
2021/08/15 02:12:34;;;;;;;;;;;;;;;;;;2091400;28;1645;-82
2021/08/15 02:13:35;;;;;;;;;;;;;;;;;;2099242;28;2043;-82
2021/08/15 02:14:38;;;;;;;;;;;;;;;;;;2100035;28;1316;-82
2021/08/15 02:15:39;;;;;;;;;;;;;;;;;;2108445;28;827;-81
2021/08/15 02:16:40;;;;;;;;;;;;;;;;;;2107857;28;1516;-81
2021/08/15 02:17:42;;;;;;;;;;;;;;;;;;2099818;28;1548;-81
2021/08/15 02:18:44;;;;;;;;;;;;;;;;;;2099753;28;1458;-81
2021/08/15 02:19:44;;;;;;;;;;;;;;;;;;2116670;28;1639;-81
2021/08/15 02:20:46;;;;;;;;;;;;;;;;;;2107781;28;1569;-81
2021/08/15 02:21:47;;;;;;;;;;;;;;;;;;2107875;28;1282;-81
2021/08/15 02:22:49;;;;;;;;;;;;;;;;;;2115924;28;1734;-81
2021/08/15 02:23:49;;;;;;;;;;;;;;;;;;2108123;28;1905;-81
2021/08/15 02:24:51;;;;;;;;;;;;;;;;;;2099874;28;1612;-81
2021/08/15 02:25:54;;;;;;;;;;;;;;;;;;2099197;28;1526;-81
2021/08/15 02:26:54;;;;;;;;;;;;;;;;;;2108127;28;772;-81
2021/08/15 02:27:56;;;;;;;;;;;;;;;;;;2108069;28;1700;-81
2021/08/15 02:28:57;;;;;;;;;;;;;;;;;;2099666;28;1767;-81
2021/08/15 02:30:00;;;;;;;;;;;;;;;;;;2099760;28;1344;-81
2021/08/15 02:31:01;;;;;;;;;;;;;;;;;;2102704;28;2042;-81
2021/08/15 02:32:03;;;;;;;;;;;;;;;;;;2108610;28;1736;-81
2021/08/15 02:33:04;;;;;;;;;;;;;;;;;;2105658;28;2060;-81
2021/08/15 02:34:05;;;;;;;;;;;;;;;;;;2099569;28;1280;-82
2021/08/15 02:35:08;;;;;;;;;;;;;;;;;;2099597;28;1775;-81
2021/08/15 02:36:08;;;;;;;;;;;;;;;;;;2103761;28;1722;-82
2021/08/15 02:37:10;;;;;;;;;;;;;;;;;;2108102;28;1758;-81
2021/08/15 02:38:12;;;;;;;;;;;;;;;;;;2116223;28;1629;-82
2021/08/15 02:39:12;;;;;;;;;;;;;;;;;;2107645;28;1255;-81
2021/08/15 02:40:15;;;;;;;;;;;;;;;;;;2107932;28;1557;-82
2021/08/15 02:41:16;;;;;;;;;;;;;;;;;;2112639;28;1590;-81
2021/08/15 02:42:18;;;;;;;;;;;;;;;;;;2108029;28;1360;-81
2021/08/15 02:43:20;;;;;;;;;;;;;;;;;;2091541;28;1918;-81
2021/08/15 02:44:20;;;;;;;;;;;;;;;;;;2091168;28;1481;-81
2021/08/15 02:45:24;;;;;;;;;;;;;;;;;;2099738;28;1302;-81
2021/08/15 02:46:25;;;;;;;;;;;;;;;;;;2114946;28;2030;-81
2021/08/15 02:47:27;;;;;;;;;;;;;;;;;;2115064;28;1874;-81
2021/08/15 02:48:32;;;;;;;;;;;;;;;;;;2099539;28;1686;-81
2021/08/15 02:49:32;;;;;;;;;;;;;;;;;;2107806;28;1702;-81
2021/08/15 02:50:34;;;;;;;;;;;;;;;;;;2099480;28;1342;-81
2021/08/15 02:51:35;;;;;;;;;;;;;;;;;;2099271;28;2007;-81
2021/08/15 02:52:37;;;;;;;;;;;;;;;;;;2099436;28;1345;-81
2021/08/15 02:53:38;;;;;;;;;;;;;;;;;;2099641;28;1304;-81
2021/08/15 02:54:39;;;;;;;;;;;;;;;;;;2099536;28;1545;-81
2021/08/15 02:55:41;;;;;;;;;;;;;;;;;;2107929;28;1289;-81
2021/08/15 02:56:42;;;;;;;;;;;;;;;;;;2107800;28;1579;-80
2021/08/15 02:57:44;;;;;;;;;;;;;;;;;;2116064;28;1252;-82
2021/08/15 02:58:45;;;;;;;;;;;;;;;;;;2116223;28;1636;-82
2021/08/15 02:59:47;;;;;;;;;;;;;;;;;;2091508;28;1642;-82
2021/08/15 03:00:49;;;;;;;;;;;;;;;;;;2099541;28;846;-82
2021/08/15 03:01:51;;;;;;;;;;;;;;;;;;2108479;28;858;-81
2021/08/15 03:02:52;;;;;;;;;;;;;;;;;;2107763;28;1693;-81
2021/08/15 03:03:53;;;;;;;;;;;;;;;;;;2116433;28;1897;-81
2021/08/15 03:04:55;;;;;;;;;;;;;;;;;;2116320;28;1666;-81
2021/08/15 03:05:56;;;;;;;;;;;;;;;;;;2107976;28;2042;-81
2021/08/15 03:06:57;;;;;;;;;;;;;;;;;;2090820;28;1540;-81
2021/08/15 03:07:59;;;;;;;;;;;;;;;;;;2091106;28;1339;-81
2021/08/15 03:08:59;;;;;;;;;;;;;;;;;;2099125;28;1578;-82
2021/08/15 03:10:01;;;;;;;;;;;;;;;;;;2090853;28;1766;-81
2021/08/15 03:11:02;;;;;;;;;;;;;;;;;;2099118;28;1696;-81
2021/08/15 03:12:04;;;;;;;;;;;;;;;;;;2107994;28;1753;-81
2021/08/15 03:13:06;;;;;;;;;;;;;;;;;;2113964;28;1793;-81
2021/08/15 03:14:08;;;;;;;;;;;;;;;;;;2107931;28;1577;-84
2021/08/15 03:15:11;;;;;;;;;;;;;;;;;;2108144;28;1379;-84
2021/08/15 03:16:13;;;;;;;;;;;;;;;;;;2116151;28;1325;-84
2021/08/15 03:17:15;;;;;;;;;;;;;;;;;;2107973;28;1364;-84
2021/08/15 03:18:16;;;;;;;;;;;;;;;;;;2115710;28;1373;-85
2021/08/15 03:19:19;;;;;;;;;;;;;;;;;;2108014;28;1738;-83
2021/08/15 03:20:21;;;;;;;;;;;;;;;;;;2116218;28;1337;-83
2021/08/15 03:21:24;;;;;;;;;;;;;;;;;;2107571;28;1707;-83
2021/08/15 03:22:26;;;;;;;;;;;;;;;;;;2107764;28;1680;-82
2021/08/15 03:23:27;;;;;;;;;;;;;;;;;;2107772;28;1917;-84
2021/08/15 03:24:28;;;;;;;;;;;;;;;;;;2115972;28;1677;-83
2021/08/15 03:25:30;;;;;;;;;;;;;;;;;;2115803;28;1438;-83
2021/08/15 03:26:31;;;;;;;;;;;;;;;;;;2107153;28;1628;-84
2021/08/15 03:27:33;;;;;;;;;;;;;;;;;;2116365;28;1610;-83
2021/08/15 03:28:34;;;;;;;;;;;;;;;;;;2116060;28;1400;-83
2021/08/15 03:29:36;;;;;;;;;;;;;;;;;;2107929;28;1234;-83
2021/08/15 03:30:37;;;;;;;;;;;;;;;;;;2099547;28;1371;-83
2021/08/15 03:31:40;;;;;;;;;;;;;;;;;;2108223;28;1275;-83
2021/08/15 03:32:42;;;;;;;;;;;;;;;;;;2099125;28;2096;-83
2021/08/15 03:33:42;;;;;;;;;;;;;;;;;;2091252;28;1684;-83
2021/08/15 03:34:44;;;;;;;;;;;;;;;;;;2099224;28;1369;-83
2021/08/15 03:35:45;;;;;;;;;;;;;;;;;;2100605;28;1537;-83
2021/08/15 03:36:47;;;;;;;;;;;;;;;;;;2098892;28;1295;-81
2021/08/15 03:37:49;;;;;;;;;;;;;;;;;;2110875;28;1186;-82
2021/08/15 03:38:50;;;;;;;;;;;;;;;;;;2116025;28;886;-81
2021/08/15 03:39:53;;;;;;;;;;;;;;;;;;2107860;28;1565;-82
2021/08/15 03:40:53;;;;;;;;;;;;;;;;;;2107677;28;923;-81
2021/08/15 03:41:58;;;;;;;;;;;;;;;;;;2099459;28;1786;-82
2021/08/15 03:43:00;;;;;;;;;;;;;;;;;;2091696;28;1244;-81
2021/08/15 03:44:00;;;;;;;;;;;;;;;;;;2107932;28;1983;-82
2021/08/15 03:45:02;;;;;;;;;;;;;;;;;;2099205;28;1845;-82
2021/08/15 03:46:03;;;;;;;;;;;;;;;;;;2098901;28;1519;-82
2021/08/15 03:47:06;;;;;;;;;;;;;;;;;;2099150;28;1785;-82
2021/08/15 03:48:07;;;;;;;;;;;;;;;;;;2105890;28;1521;-82
2021/08/15 03:49:09;;;;;;;;;;;;;;;;;;2107756;28;1279;-81
2021/08/15 03:50:11;;;;;;;;;;;;;;;;;;2107081;28;1493;-81
2021/08/15 03:51:12;;;;;;;;;;;;;;;;;;2094337;28;1663;-81
2021/08/15 03:52:13;;;;;;;;;;;;;;;;;;2098867;28;1562;-81
2021/08/15 03:53:15;;;;;;;;;;;;;;;;;;2099278;28;1659;-82
2021/08/15 03:54:20;;;;;;;;;;;;;;;;;;2099336;28;1218;-82
2021/08/15 03:55:21;;;;;;;;;;;;;;;;;;2099735;28;1305;-82
2021/08/15 03:56:22;;;;;;;;;;;;;;;;;;2105584;28;1571;-82
2021/08/15 03:57:24;;;;;;;;;;;;;;;;;;2115379;28;1701;-81
2021/08/15 03:58:24;;;;;;;;;;;;;;;;;;2107743;28;1529;-82
2021/08/15 03:59:26;;;;;;;;;;;;;;;;;;2107605;28;1605;-82
2021/08/15 04:00:27;;;;;;;;;;;;;;;;;;2098544;28;1323;-82
2021/08/15 04:01:29;;;;;;;;;;;;;;;;;;2107503;28;1787;-81
2021/08/15 04:02:31;;;;;;;;;;;;;;;;;;2107748;28;1694;-83
2021/08/15 04:03:33;;;;;;;;;;;;;;;;;;2090743;28;1910;-83
2021/08/15 04:04:36;;;;;;;;;;;;;;;;;;2099194;28;1329;-83
2021/08/15 04:05:37;;;;;;;;;;;;;;;;;;2107068;28;1855;-84
2021/08/15 04:06:39;;;;;;;;;;;;;;;;;;2099094;28;1769;-84
2021/08/15 04:07:40;;;;;;;;;;;;;;;;;;2102447;28;1580;-83
2021/08/15 04:08:41;;;;;;;;;;;;;;;;;;2106916;28;1732;-83
2021/08/15 04:09:43;;;;;;;;;;;;;;;;;;2115743;28;1551;-83
2021/08/15 04:10:44;;;;;;;;;;;;;;;;;;2107402;28;1430;-83
2021/08/15 04:11:45;;;;;;;;;;;;;;;;;;2107681;28;1258;-83
2021/08/15 04:12:46;;;;;;;;;;;;;;;;;;2107148;28;1657;-83
2021/08/15 04:13:48;;;;;;;;;;;;;;;;;;2107314;28;1688;-83
2021/08/15 04:14:50;;;;;;;;;;;;;;;;;;2107042;28;1523;-83
2021/08/15 04:15:51;;;;;;;;;;;;;;;;;;2107626;28;1713;-83
2021/08/15 04:16:53;;;;;;;;;;;;;;;;;;2115395;28;1668;-83
2021/08/15 04:17:55;;;;;;;;;;;;;;;;;;2116004;28;869;-83
2021/08/15 04:18:57;;;;;;;;;;;;;;;;;;2107269;28;1658;-83
2021/08/15 04:19:58;;;;;;;;;;;;;;;;;;2099117;28;1357;-83
2021/08/15 04:20:59;;;;;;;;;;;;;;;;;;2099171;28;1292;-83
2021/08/15 04:22:01;;;;;;;;;;;;;;;;;;2106859;28;1222;-82
2021/08/15 04:23:03;;;;;;;;;;;;;;;;;;2107593;28;1709;-83
2021/08/15 04:24:05;;;;;;;;;;;;;;;;;;2107513;28;1910;-83
2021/08/15 04:25:06;;;;;;;;;;;;;;;;;;2107701;28;1255;-82
2021/08/15 04:26:08;;;;;;;;;;;;;;;;;;2107348;28;1626;-84
2021/08/15 04:27:10;;;;;;;;;;;;;;;;;;2103074;28;1585;-83
2021/08/15 04:28:10;;;;;;;;;;;;;;;;;;2115929;28;1609;-83
2021/08/15 04:29:13;;;;;;;;;;;;;;;;;;2107394;28;1482;-83
2021/08/15 04:30:14;;;;;;;;;;;;;;;;;;2107904;28;1680;-82
2021/08/15 04:31:16;;;;;;;;;;;;;;;;;;2102127;28;2050;-83
2021/08/15 04:32:17;;;;;;;;;;;;;;;;;;2107600;28;1202;-83
2021/08/15 04:33:21;;;;;;;;;;;;;;;;;;2107633;28;1333;-82
2021/08/15 04:34:23;;;;;;;;;;;;;;;;;;2115747;28;830;-83
2021/08/15 04:35:24;;;;;;;;;;;;;;;;;;2116021;28;1340;-83
2021/08/15 04:36:25;;;;;;;;;;;;;;;;;;2115901;28;1612;-83
2021/08/15 04:37:26;;;;;;;;;;;;;;;;;;2117357;28;1535;-83
2021/08/15 04:38:28;;;;;;;;;;;;;;;;;;2100509;28;1251;-83
2021/08/15 04:39:29;;;;;;;;;;;;;;;;;;2100072;28;1693;-82
2021/08/15 04:40:31;;;;;;;;;;;;;;;;;;2108893;28;1702;-83
2021/08/15 04:41:32;;;;;;;;;;;;;;;;;;2108260;28;1986;-84
2021/08/15 04:42:33;;;;;;;;;;;;;;;;;;2106427;28;2123;-84
2021/08/15 04:43:35;;;;;;;;;;;;;;;;;;2092774;28;1718;-83
2021/08/15 04:44:36;;;;;;;;;;;;;;;;;;2100178;28;1914;-80
2021/08/15 04:45:38;;;;;;;;;;;;;;;;;;2100714;28;1641;-81
2021/08/15 04:46:39;;;;;;;;;;;;;;;;;;2100554;28;1706;-80
2021/08/15 04:47:40;;;;;;;;;;;;;;;;;;2100650;28;1581;-80
2021/08/15 04:48:43;;;;;;;;;;;;;;;;;;2100492;28;1529;-79
2021/08/15 04:49:44;;;;;;;;;;;;;;;;;;2108948;28;925;-78
2021/08/15 04:50:46;;;;;;;;;;;;;;;;;;2108436;28;1847;-78
2021/08/15 04:51:47;;;;;;;;;;;;;;;;;;2108769;28;847;-79
2021/08/15 04:52:48;;;;;;;;;;;;;;;;;;2108557;28;1593;-77
2021/08/15 04:53:49;;;;;;;;;;;;;;;;;;2108980;28;1701;-78
2021/08/15 04:54:51;;;;;;;;;;;;;;;;;;2099959;28;1306;-78
2021/08/15 04:55:53;;;;;;;;;;;;;;;;;;2102284;28;1891;-78
2021/08/15 04:56:53;;;;;;;;;;;;;;;;;;2108204;28;1335;-78
2021/08/15 04:57:55;;;;;;;;;;;;;;;;;;2100261;28;1228;-77
2021/08/15 04:58:57;;;;;;;;;;;;;;;;;;2100196;28;1624;-78
2021/08/15 04:59:57;;;;;;;;;;;;;;;;;;2100560;28;1504;-78
2021/08/15 05:00:59;;;;;;;;;;;;;;;;;;2102406;28;1862;-78
2021/08/15 05:02:03;;;;;;;;;;;;;;;;;;2100207;28;1595;-78
2021/08/15 05:03:05;;;;;;;;;;;;;;;;;;2109022;28;1288;-78
2021/08/15 05:04:07;;;;;;;;;;;;;;;;;;2108552;28;1975;-78
2021/08/15 05:05:09;;;;;;;;;;;;;;;;;;2108942;28;847;-78
2021/08/15 05:06:11;;;;;;;;;;;;;;;;;;2112740;28;1839;-79
2021/08/15 05:07:11;;;;;;;;;;;;;;;;;;2108521;28;1498;-78
2021/08/15 05:08:13;;;;;;;;;;;;;;;;;;2107525;28;1686;-78
2021/08/15 05:09:14;;;;;;;;;;;;;;;;;;2108289;28;1440;-78
2021/08/15 05:10:16;;;;;;;;;;;;;;;;;;2108716;28;1788;-78
2021/08/15 05:11:17;;;;;;;;;;;;;;;;;;2108236;28;1587;-78
2021/08/15 05:12:18;;;;;;;;;;;;;;;;;;2108990;28;908;-78
2021/08/15 05:13:20;;;;;;;;;;;;;;;;;;2109557;28;816;-78
2021/08/15 05:14:21;;;;;;;;;;;;;;;;;;2108621;28;1539;-78
2021/08/15 05:15:22;;;;;;;;;;;;;;;;;;2108614;28;1574;-78
2021/08/15 05:16:23;;;;;;;;;;;;;;;;;;2110849;28;1842;-78
2021/08/15 05:17:24;;;;;;;;;;;;;;;;;;2116404;28;1995;-78
2021/08/15 05:18:25;;;;;;;;;;;;;;;;;;2108264;28;913;-78
2021/08/15 05:19:30;;;;;;;;;;;;;;;;;;2108896;28;1780;-78
2021/08/15 05:20:32;;;;;;;;;;;;;;;;;;2092413;28;1509;-78
2021/08/15 05:21:33;;;;;;;;;;;;;;;;;;2107665;28;1828;-78
2021/08/15 05:22:35;;;;;;;;;;;;;;;;;;2114577;28;1869;-78
2021/08/15 05:23:36;;;;;;;;;;;;;;;;;;2099896;28;1498;-78
2021/08/15 05:24:37;;;;;;;;;;;;;;;;;;2099922;28;1971;-78
2021/08/15 05:25:39;;;;;;;;;;;;;;;;;;2100002;28;2018;-78
2021/08/15 05:26:42;;;;;;;;;;;;;;;;;;2107972;28;1673;-78
2021/08/15 05:27:43;;;;;;;;;;;;;;;;;;2107566;28;2016;-78
2021/08/15 05:28:45;;;;;;;;;;;;;;;;;;2100183;28;1562;-78
2021/08/15 05:29:46;;;;;;;;;;;;;;;;;;2108550;28;1572;-78
2021/08/15 05:30:48;;;;;;;;;;;;;;;;;;2107998;28;1938;-78
2021/08/15 05:31:49;;;;;;;;;;;;;;;;;;2108232;28;1260;-78
2021/08/15 05:32:50;;;;;;;;;;;;;;;;;;2099846;28;1694;-78
2021/08/15 05:33:51;;;;;;;;;;;;;;;;;;2100081;28;1503;-79
2021/08/15 05:34:54;;;;;;;;;;;;;;;;;;2099975;28;1549;-78
2021/08/15 05:35:55;;;;;;;;;;;;;;;;;;2101860;28;1849;-80
2021/08/15 05:36:57;;;;;;;;;;;;;;;;;;2099433;28;1520;-79
2021/08/15 05:37:57;;;;;;;;;;;;;;;;;;2112672;28;1868;-78
2021/08/15 05:38:59;;;;;;;;;;;;;;;;;;2108172;28;1657;-78
2021/08/15 05:40:00;;;;;;;;;;;;;;;;;;2108432;28;1289;-79
2021/08/15 05:41:01;;;;;;;;;;;;;;;;;;2110762;28;2026;-78
2021/08/15 05:42:02;;;;;;;;;;;;;;;;;;2116912;28;1669;-79
2021/08/15 05:43:04;;;;;;;;;;;;;;;;;;2110229;28;2026;-78
2021/08/15 05:44:05;;;;;;;;;;;;;;;;;;2091512;28;1474;-79
2021/08/15 05:45:07;;;;;;;;;;;;;;;;;;2091270;28;1906;-79
2021/08/15 05:46:09;;;;;;;;;;;;;;;;;;2103740;28;1691;-79
2021/08/15 05:47:09;;;;;;;;;;;;;;;;;;2116668;28;1557;-79
2021/08/15 05:48:11;;;;;;;;;;;;;;;;;;2115149;28;1909;-79
2021/08/15 05:49:12;;;;;;;;;;;;;;;;;;2108299;28;1243;-78
2021/08/15 05:50:15;;;;;;;;;;;;;;;;;;2108420;28;1574;-79
2021/08/15 05:51:15;;;;;;;;;;;;;;;;;;2104765;28;2083;-78
2021/08/15 05:52:17;;;;;;;;;;;;;;;;;;2099634;28;1598;-79
2021/08/15 05:53:18;;;;;;;;;;;;;;;;;;2108350;28;2071;-78
2021/08/15 05:54:19;;;;;;;;;;;;;;;;;;2099834;28;1747;-78
2021/08/15 05:55:20;;;;;;;;;;;;;;;;;;2100013;28;1549;-79
2021/08/15 05:56:21;;;;;;;;;;;;;;;;;;2108063;28;2022;-79
2021/08/15 05:57:22;;;;;;;;;;;;;;;;;;2100180;28;1921;-79
2021/08/15 05:58:24;;;;;;;;;;;;;;;;;;2099430;28;1677;-79
2021/08/15 05:59:24;;;;;;;;;;;;;;;;;;2108261;28;1381;-79
2021/08/15 06:00:26;;;;;;;;;;;;;;;;;;2099661;28;1581;-79
2021/08/15 06:01:28;;;;;;;;;;;;;;;;;;2107619;28;1832;-79
2021/08/15 06:02:29;;;;;;;;;;;;;;;;;;2107484;28;1925;-79
2021/08/15 06:03:30;;;;;;;;;;;;;;;;;;2116700;28;862;-79
2021/08/15 06:04:32;;;;;;;;;;;;;;;;;;2116562;28;1969;-79
2021/08/15 06:05:34;;;;;;;;;;;;;;;;;;2107945;28;1544;-79
2021/08/15 06:06:35;;;;;;;;;;;;;;;;;;2106743;28;1931;-82
2021/08/15 06:07:37;;;;;;;;;;;;;;;;;;2105565;28;1706;-82
2021/08/15 06:08:38;;;;;;;;;;;;;;;;;;2099250;28;1732;-86
2021/08/15 06:09:40;;;;;;;;;;;;;;;;;;2107083;28;1356;-81
2021/08/15 06:10:42;;;;;;;;;;;;;;;;;;2115495;28;1520;-82
2021/08/15 06:11:43;;;;;;;;;;;;;;;;;;2099873;28;1287;-82
2021/08/15 06:12:45;;;;;;;;;;;;;;;;;;2099674;28;1692;-83
2021/08/15 06:13:45;;;;;;;;;;;;;;;;;;2108573;28;1538;-83
2021/08/15 06:14:47;;;;;;;;;;;;;;;;;;2091545;28;1751;-83
2021/08/15 06:15:48;;;;;;;;;;;;;;;;;;2099891;28;1243;-83
2021/08/15 06:16:50;;;;;;;;;;;;;;;;;;2099539;28;1566;-82
2021/08/15 06:17:51;;;;;;;;;;;;;;;;;;2100047;28;1362;-82
2021/08/15 06:18:52;;;;;;;;;;;;;;;;;;2099831;28;1573;-82
2021/08/15 06:19:54;;;;;;;;;;;;;;;;;;2099956;28;1567;-82
2021/08/15 06:20:57;;;;;;;;;;;;;;;;;;2099744;28;1283;-83
2021/08/15 06:21:57;;;;;;;;;;;;;;;;;;2108731;28;1545;-82
2021/08/15 06:22:59;;;;;;;;;;;;;;;;;;2107762;28;1606;-82
2021/08/15 06:24:00;;;;;;;;;;;;;;;;;;2099526;28;1627;-83
2021/08/15 06:25:02;;;;;;;;;;;;;;;;;;2091295;28;1918;-82
2021/08/15 06:26:02;;;;;;;;;;;;;;;;;;2091627;28;1553;-82
2021/08/15 06:27:05;;;;;;;;;;;;;;;;;;2099181;28;1512;-82
2021/08/15 06:28:06;;;;;;;;;;;;;;;;;;2099944;28;1591;-82
2021/08/15 06:29:08;;;;;;;;;;;;;;;;;;2100251;28;1564;-82
2021/08/15 06:30:09;;;;;;;;;;;;;;;;;;2099919;28;1333;-83
2021/08/15 06:31:11;;;;;;;;;;;;;;;;;;2100008;28;1707;-82
2021/08/15 06:32:12;;;;;;;;;;;;;;;;;;2107670;28;1536;-83
2021/08/15 06:33:14;;;;;;;;;;;;;;;;;;2108153;28;1369;-82
2021/08/15 06:34:15;;;;;;;;;;;;;;;;;;2091376;28;1458;-83
2021/08/15 06:35:17;;;;;;;;;;;;;;;;;;2091528;28;1571;-83
2021/08/15 06:36:21;;;;;;;;;;;;;;;;;;2107814;28;1320;-82
2021/08/15 06:37:21;;;;;;;;;;;;;;;;;;2108246;28;1654;-83
2021/08/15 06:38:23;;;;;;;;;;;;;;;;;;2107967;28;1794;-82
2021/08/15 06:39:26;;;;;;;;;;;;;;;;;;2099364;28;1543;-83
2021/08/15 06:40:28;;;;;;;;;;;;;;;;;;2091509;28;1406;-83
2021/08/15 06:41:29;;;;;;;;;;;;;;;;;;2083320;28;1516;-83
2021/08/15 06:42:30;;;;;;;;;;;;;;;;;;2098224;28;1336;-83
2021/08/15 06:43:32;;;;;;;;;;;;;;;;;;2108059;28;1591;-83
2021/08/15 06:44:36;;;;;;;;;;;;;;;;;;2107342;28;1317;-83
2021/08/15 06:45:39;;;;;;;;;;;;;;;;;;2108315;28;1934;-84
2021/08/15 06:46:41;;;;;;;;;;;;;;;;;;2099706;28;1230;-83
2021/08/15 06:47:42;;;;;;;;;;;;;;;;;;2093958;28;1266;-83
2021/08/15 06:48:45;;;;;;;;;;;;;;;;;;2099425;28;1547;-84
2021/08/15 06:49:45;;;;;;;;;;;;;;;;;;2099686;28;1281;-82
2021/08/15 06:50:47;;;;;;;;;;;;;;;;;;2100850;28;1236;-82
2021/08/15 06:51:49;;;;;;;;;;;;;;;;;;2099747;28;1783;-82
2021/08/15 06:52:52;;;;;;;;;;;;;;;;;;2106933;28;1556;-82
2021/08/15 06:53:52;;;;;;;;;;;;;;;;;;2099335;28;1341;-81
2021/08/15 06:54:54;;;;;;;;;;;;;;;;;;2099102;28;1632;-82
2021/08/15 06:55:56;;;;;;;;;;;;;;;;;;2108098;28;1603;-82
2021/08/15 06:56:57;;;;;;;;;;;;;;;;;;2099400;28;1924;-80
2021/08/15 06:57:59;;;;;;;;;;;;;;;;;;2099506;28;1409;-82
2021/08/15 06:59:01;;;;;;;;;;;;;;;;;;2099239;28;1756;-81
2021/08/15 07:00:02;;;;;;;;;;;;;;;;;;2090848;28;1647;-81
2021/08/15 07:01:04;;;;;;;;;;;;;;;;;;2090917;28;1715;-81
2021/08/15 07:02:05;;;;;;;;;;;;;;;;;;2099356;28;1683;-82
2021/08/15 07:03:08;;;;;;;;;;;;;;;;;;2107528;28;1559;-82
2021/08/15 07:04:10;;;;;;;;;;;;;;;;;;2099070;28;1323;-83
2021/08/15 07:05:11;;;;;;;;;;;;;;;;;;2099746;28;1979;-82
2021/08/15 07:06:13;;;;;;;;;;;;;;;;;;2107325;28;2045;-81
2021/08/15 07:07:15;;;;;;;;;;;;;;;;;;2099644;28;1564;-82
2021/08/15 07:08:17;;;;;;;;;;;;;;;;;;2107085;28;1616;-80